Time;durP1;ratioP1;P1;durP2;ratioP2;P2;SDS_P1;SDS_P2;PMS_P1;PMS_P2;Temp;Humidity;BMP_temperature;BMP_pressure;BME280_temperature;BME280_humidity;BME280_pressure;Samples;Min_cycle;Max_cycle;Signal;HPM_P1;HPM_P2
2023/10/31 10:27:48;;;;;;;0.98;0.35;;;;;;;;;;5104561;27;20382;-78
2023/10/31 10:30:14;;;;;;;1.65;0.38;;;;;;;;;;5106699;28;20008;-78
2023/10/31 10:32:41;;;;;;;1.60;0.30;;;;;;;;;;5125098;28;20024;-78
2023/10/31 10:35:08;;;;;;;0.98;0.40;;;;;;;;;;5123814;28;20467;-78
2023/10/31 10:37:37;;;;;;;2.95;0.32;;;;;;;;;;5112493;28;20511;-79
2023/10/31 10:40:03;;;;;;;0.98;0.30;;;;;;;;;;5102423;28;20035;-78
2023/10/31 10:42:34;;;;;;;1.85;0.30;;;;;;;;;;5104317;28;20084;-78
2023/10/31 10:45:02;;;;;;;3.13;0.45;;;;;;;;;;5102898;28;20012;-78
2023/10/31 10:47:29;;;;;;;0.85;0.30;;;;;;;;;;5104756;28;20028;-79
2023/10/31 10:49:58;;;;;;;1.85;0.30;;;;;;;;;;5101959;28;20008;-79
2023/10/31 10:52:44;;;;;;;2.92;0.40;;;;;;;;;;5103999;28;20014;-79
2023/10/31 10:55:19;;;;;;;3.67;0.50;;;;;;;;;;5101237;28;20008;-79
2023/10/31 10:58:01;;;;;;;1.30;0.38;;;;;;;;;;5103644;28;20011;-79
2023/10/31 11:00:28;;;;;;;3.47;0.77;;;;;;;;;;5104168;28;20344;-79
2023/10/31 11:02:56;;;;;;;0.65;0.30;;;;;;;;;;5102481;28;20292;-79
2023/10/31 11:05:23;;;;;;;0.40;0.20;;;;;;;;;;5104868;28;20012;-79
2023/10/31 11:07:49;;;;;;;2.90;0.47;;;;;;;;;;5099584;28;20319;-79
2023/10/31 11:10:15;;;;;;;1.30;0.40;;;;;;;;;;5103536;28;20012;-79
2023/10/31 11:12:42;;;;;;;0.40;0.28;;;;;;;;;;5101092;28;20323;-79
2023/10/31 11:15:10;;;;;;;0.88;0.20;;;;;;;;;;5103170;28;20012;-79
2023/10/31 11:17:41;;;;;;;4.07;0.40;;;;;;;;;;5122368;28;20023;-79
2023/10/31 11:20:08;;;;;;;2.60;0.40;;;;;;;;;;5122920;28;20464;-79
2023/10/31 11:22:57;;;;;;;3.47;0.40;;;;;;;;;;5104043;28;20267;-79
2023/10/31 11:25:23;;;;;;;2.05;0.20;;;;;;;;;;5089701;28;20020;-79
2023/10/31 11:27:53;;;;;;;0.95;0.20;;;;;;;;;;5112963;28;20392;-79
2023/10/31 11:30:25;;;;;;;0.50;0.17;;;;;;;;;;5083563;28;20125;-79
2023/10/31 11:33:01;;;;;;;1.70;0.38;;;;;;;;;;5083191;28;20103;-80
2023/10/31 11:35:30;;;;;;;0.85;0.38;;;;;;;;;;5082147;28;20020;-79
2023/10/31 11:38:07;;;;;;;1.02;0.20;;;;;;;;;;5097940;28;20015;-79
2023/10/31 11:40:33;;;;;;;2.75;0.20;;;;;;;;;;5089426;28;20020;-78
2023/10/31 11:43:02;;;;;;;1.73;0.40;;;;;;;;;;5109428;28;20352;-78
2023/10/31 11:45:35;;;;;;;1.33;0.20;;;;;;;;;;5108897;28;20012;-77
2023/10/31 11:48:01;;;;;;;1.60;0.20;;;;;;;;;;5068428;28;20024;-78
2023/10/31 11:50:27;;;;;;;2.25;0.22;;;;;;;;;;5069609;28;20079;-78
2023/10/31 11:53:06;;;;;;;1.30;0.55;;;;;;;;;;5103157;28;20007;-78
2023/10/31 11:55:37;;;;;;;0.73;0.20;;;;;;;;;;5108931;28;20016;-78
2023/10/31 11:58:02;;;;;;;;;;;;;;;;;;5109273;28;20203;-77
2023/10/31 12:00:28;;;;;;;1.40;0.35;;;;;;;;;;5108646;28;20252;-78
2023/10/31 12:03:01;;;;;;;1.75;0.32;;;;;;;;;;5092342;28;20099;-78
2023/10/31 12:05:27;;;;;;;2.35;0.30;;;;;;;;;;5089623;28;20019;-78
2023/10/31 12:07:54;;;;;;;1.58;0.30;;;;;;;;;;5105448;28;20020;-78
2023/10/31 12:10:24;;;;;;;1.73;0.25;;;;;;;;;;5109857;28;20012;-77
2023/10/31 12:12:50;;;;;;;2.65;0.30;;;;;;;;;;5093128;28;20103;-77
2023/10/31 12:15:16;;;;;;;3.05;0.38;;;;;;;;;;5088110;28;20020;-77
2023/10/31 12:17:42;;;;;;;2.20;0.20;;;;;;;;;;5103204;28;20069;-77
2023/10/31 12:20:08;;;;;;;2.28;0.38;;;;;;;;;;5109412;28;20023;-78
2023/10/31 12:22:35;;;;;;;1.70;0.45;;;;;;;;;;5097434;28;20020;-78
2023/10/31 12:25:02;;;;;;;3.35;0.77;;;;;;;;;;5089098;28;20553;-77
2023/10/31 12:27:43;;;;;;;1.42;0.30;;;;;;;;;;5099539;28;20063;-78
2023/10/31 12:30:09;;;;;;;4.07;0.40;;;;;;;;;;5107911;28;20008;-77
2023/10/31 12:32:35;;;;;;;1.10;0.20;;;;;;;;;;5096393;28;20024;-78
2023/10/31 12:35:01;;;;;;;1.52;0.20;;;;;;;;;;5087698;28;20012;-78
2023/10/31 12:37:27;;;;;;;1.42;0.40;;;;;;;;;;5099418;28;20102;-79
2023/10/31 12:39:53;;;;;;;2.20;0.32;;;;;;;;;;5109756;28;20018;-84
2023/10/31 12:42:20;;;;;;;2.65;0.70;;;;;;;;;;5100531;28;20012;-84
2023/10/31 12:44:46;;;;;;;2.30;0.20;;;;;;;;;;5088318;28;20046;-84
2023/10/31 12:47:21;;;;;;;1.25;0.20;;;;;;;;;;5094541;28;20319;-83
2023/10/31 12:49:47;;;;;;;0.52;0.30;;;;;;;;;;5108300;28;20015;-82
2023/10/31 12:52:13;;;;;;;2.00;0.20;;;;;;;;;;5102558;28;20425;-82
2023/10/31 12:54:39;;;;;;;1.42;0.38;;;;;;;;;;5086756;28;20111;-78
2023/10/31 12:57:07;;;;;;;1.52;0.30;;;;;;;;;;5087923;28;20032;-79
2023/10/31 12:59:33;;;;;;;1.50;0.30;;;;;;;;;;5088214;28;20018;-79
2023/10/31 13:02:00;;;;;;;2.65;0.30;;;;;;;;;;5090576;28;20011;-79
2023/10/31 13:04:26;;;;;;;4.32;0.32;;;;;;;;;;5107713;28;20030;-78
2023/10/31 13:07:10;;;;;;;5.93;0.30;;;;;;;;;;5107136;28;20016;-79
2023/10/31 13:09:39;;;;;;;3.30;0.52;;;;;;;;;;5087439;28;20459;-79
2023/10/31 13:12:05;;;;;;;2.70;0.40;;;;;;;;;;5089846;28;20379;-79
2023/10/31 13:14:32;;;;;;;3.97;0.50;;;;;;;;;;5099542;28;20110;-79
2023/10/31 13:16:58;;;;;;;1.27;0.57;;;;;;;;;;5089384;28;20024;-79
2023/10/31 13:19:24;;;;;;;4.20;1.00;;;;;;;;;;5108477;28;20051;-78
2023/10/31 13:21:51;;;;;;;2.03;0.60;;;;;;;;;;5106803;28;20010;-79
2023/10/31 13:24:17;;;;;;;4.45;0.70;;;;;;;;;;5086770;28;20119;-78
2023/10/31 13:26:44;;;;;;;2.25;0.50;;;;;;;;;;5087934;28;20089;-79
2023/10/31 13:29:11;;;;;;;2.38;0.30;;;;;;;;;;5088474;28;20039;-78
2023/10/31 13:31:37;;;;;;;1.40;0.32;;;;;;;;;;5087756;28;20030;-79
2023/10/31 13:34:03;;;;;;;4.28;0.43;;;;;;;;;;5089121;28;20019;-79
2023/10/31 13:36:29;;;;;;;0.70;0.40;;;;;;;;;;5085525;28;20046;-79
2023/10/31 13:38:55;;;;;;;1.13;0.63;;;;;;;;;;5083984;28;20043;-78
2023/10/31 13:41:21;;;;;;;0.70;0.30;;;;;;;;;;5086537;28;20468;-78
2023/10/31 13:43:48;;;;;;;2.15;0.50;;;;;;;;;;5087419;28;20416;-79
2023/10/31 13:46:15;;;;;;;1.70;0.30;;;;;;;;;;5083389;28;20021;-79
2023/10/31 13:48:41;;;;;;;4.18;0.30;;;;;;;;;;5094455;28;20008;-79
2023/10/31 13:51:07;;;;;;;2.95;0.30;;;;;;;;;;5106934;28;20387;-79
2023/10/31 13:53:33;;;;;;;1.65;0.35;;;;;;;;;;5093859;28;20038;-79
2023/10/31 13:55:59;;;;;;;0.50;0.30;;;;;;;;;;5087248;28;20122;-79
2023/10/31 13:58:25;;;;;;;2.63;0.45;;;;;;;;;;5096718;28;20466;-78
2023/10/31 14:00:51;;;;;;;1.27;0.30;;;;;;;;;;5106427;28;20046;-78
2023/10/31 14:03:17;;;;;;;1.75;0.30;;;;;;;;;;5097766;28;20020;-79
2023/10/31 14:05:43;;;;;;;1.08;0.38;;;;;;;;;;5087862;28;20016;-78
2023/10/31 14:08:10;;;;;;;2.05;0.30;;;;;;;;;;5092862;28;20004;-78
2023/10/31 14:10:36;;;;;;;2.03;0.40;;;;;;;;;;5102490;28;20012;-79
2023/10/31 14:13:02;;;;;;;1.75;0.40;;;;;;;;;;5090942;28;20004;-79
2023/10/31 14:15:28;;;;;;;1.52;0.60;;;;;;;;;;5107881;28;20142;-79
2023/10/31 14:17:54;;;;;;;1.13;0.40;;;;;;;;;;5102260;28;20016;-79
2023/10/31 14:20:20;;;;;;;2.42;0.40;;;;;;;;;;5086089;28;20012;-79
2023/10/31 14:22:50;;;;;;;1.60;0.25;;;;;;;;;;5088870;28;20015;-79
2023/10/31 14:25:16;;;;;;;2.20;0.38;;;;;;;;;;5107489;28;20019;-79
2023/10/31 14:27:43;;;;;;;0.95;0.38;;;;;;;;;;5104860;28;20035;-79
2023/10/31 14:30:09;;;;;;;0.55;0.20;;;;;;;;;;5087258;28;20073;-79
2023/10/31 14:32:35;;;;;;;7.40;0.75;;;;;;;;;;5085793;28;20429;-79
2023/10/31 14:35:01;;;;;;;1.25;0.40;;;;;;;;;;5106164;28;20466;-79
2023/10/31 14:37:27;;;;;;;2.78;0.98;;;;;;;;;;5092555;28;20072;-79
2023/10/31 14:39:54;;;;;;;0.93;0.30;;;;;;;;;;5083273;28;20034;-79
2023/10/31 14:42:23;;;;;;;2.88;0.75;;;;;;;;;;5085808;28;20162;-79
2023/10/31 14:44:49;;;;;;;1.52;0.30;;;;;;;;;;5104820;28;20489;-79
2023/10/31 14:47:15;;;;;;;3.42;0.40;;;;;;;;;;5102077;28;20047;-79
2023/10/31 14:49:41;;;;;;;3.38;0.50;;;;;;;;;;5103647;28;20018;-79
2023/10/31 14:52:08;;;;;;;2.40;0.38;;;;;;;;;;5107042;28;20054;-79
2023/10/31 14:54:35;;;;;;;3.60;0.45;;;;;;;;;;5090632;28;20018;-79
2023/10/31 14:57:01;;;;;;;1.60;0.40;;;;;;;;;;5085231;28;20115;-79
2023/10/31 14:59:27;;;;;;;2.63;0.65;;;;;;;;;;5096451;28;20098;-79
2023/10/31 15:01:53;;;;;;;1.88;0.40;;;;;;;;;;5086257;28;20421;-79
2023/10/31 15:04:19;;;;;;;1.67;0.60;;;;;;;;;;5097571;28;20095;-79
2023/10/31 15:06:45;;;;;;;1.15;0.50;;;;;;;;;;5106896;28;20395;-79
2023/10/31 15:09:11;;;;;;;3.92;0.70;;;;;;;;;;5095399;28;20019;-79
2023/10/31 15:11:38;;;;;;;2.47;0.43;;;;;;;;;;5068812;28;20016;-78
2023/10/31 15:14:04;;;;;;;2.63;0.55;;;;;;;;;;5088842;28;20066;-78
2023/10/31 15:16:30;;;;;;;2.05;0.50;;;;;;;;;;5109446;28;20414;-78
2023/10/31 15:18:56;;;;;;;2.38;0.40;;;;;;;;;;5102504;28;20014;-78
2023/10/31 15:21:22;;;;;;;2.53;0.50;;;;;;;;;;5110301;28;20020;-78
2023/10/31 15:23:48;;;;;;;1.55;0.50;;;;;;;;;;5105707;28;20648;-78
2023/10/31 15:26:14;;;;;;;2.92;0.50;;;;;;;;;;5089055;28;20052;-78
2023/10/31 15:28:43;;;;;;;2.00;0.70;;;;;;;;;;5091255;28;20012;-78
2023/10/31 15:31:13;;;;;;;0.93;0.50;;;;;;;;;;5090905;28;20102;-78
2023/10/31 15:33:42;;;;;;;0.70;0.47;;;;;;;;;;5093085;28;20258;-79
2023/10/31 15:36:11;;;;;;;5.55;0.90;;;;;;;;;;5109592;28;20592;-79
2023/10/31 15:38:37;;;;;;;2.13;0.57;;;;;;;;;;5106620;28;20016;-78
2023/10/31 15:41:03;;;;;;;2.08;0.60;;;;;;;;;;5089389;28;20015;-78
2023/10/31 15:43:29;;;;;;;3.60;0.80;;;;;;;;;;5090070;28;20635;-78
2023/10/31 15:45:55;;;;;;;8.48;1.92;;;;;;;;;;5088923;28;20389;-78
2023/10/31 15:48:21;;;;;;;1.02;0.70;;;;;;;;;;5089193;28;20008;-78
2023/10/31 15:50:47;;;;;;;2.55;0.70;;;;;;;;;;5109525;28;20093;-78
2023/10/31 15:53:13;;;;;;;2.33;1.00;;;;;;;;;;5095938;28;20020;-78
2023/10/31 15:55:39;;;;;;;3.58;1.50;;;;;;;;;;5106208;28;20494;-79
2023/10/31 15:58:05;;;;;;;5.55;4.03;;;;;;;;;;5110342;28;20031;-79
2023/10/31 16:00:31;;;;;;;4.38;2.05;;;;;;;;;;5092964;28;20009;-79
2023/10/31 16:02:57;;;;;;;3.78;1.90;;;;;;;;;;5089278;28;20084;-79
2023/10/31 16:05:24;;;;;;;3.60;1.70;;;;;;;;;;5092092;28;20016;-79
2023/10/31 16:07:50;;;;;;;2.13;1.55;;;;;;;;;;5087915;28;20026;-78
2023/10/31 16:10:16;;;;;;;3.90;2.00;;;;;;;;;;5089639;28;20016;-79
2023/10/31 16:12:42;;;;;;;2.42;1.38;;;;;;;;;;5088576;28;20498;-79
2023/10/31 16:15:08;;;;;;;4.47;1.52;;;;;;;;;;5099983;28;20023;-79
2023/10/31 16:17:35;;;;;;;4.22;1.48;;;;;;;;;;5110432;28;20084;-79
2023/10/31 16:20:01;;;;;;;3.40;1.20;;;;;;;;;;5099207;28;20022;-79
2023/10/31 16:22:27;;;;;;;2.45;1.65;;;;;;;;;;5088155;28;20004;-78
2023/10/31 16:24:53;;;;;;;6.72;1.60;;;;;;;;;;5089662;28;20032;-79
2023/10/31 16:27:21;;;;;;;3.22;1.42;;;;;;;;;;5089503;28;20048;-79
2023/10/31 16:29:47;;;;;;;3.65;1.40;;;;;;;;;;5097157;28;20531;-79
2023/10/31 16:32:13;;;;;;;7.70;2.70;;;;;;;;;;5110035;28;20015;-79
2023/10/31 16:34:43;;;;;;;8.65;3.45;;;;;;;;;;5104882;28;20069;-79
2023/10/31 16:37:09;;;;;;;6.68;3.20;;;;;;;;;;5088705;28;20028;-78
2023/10/31 16:39:35;;;;;;;6.63;3.35;;;;;;;;;;5094021;28;20148;-79
2023/10/31 16:42:01;;;;;;;3.15;1.80;;;;;;;;;;5101154;28;20031;-78
2023/10/31 16:44:27;;;;;;;3.15;1.80;;;;;;;;;;5088037;28;20406;-78
2023/10/31 16:46:53;;;;;;;3.15;1.90;;;;;;;;;;5089149;28;20035;-78
2023/10/31 16:49:19;;;;;;;5.28;1.50;;;;;;;;;;5089247;28;20364;-78
2023/10/31 16:51:45;;;;;;;5.18;1.73;;;;;;;;;;5091029;28;20016;-78
2023/10/31 16:54:11;;;;;;;4.55;1.38;;;;;;;;;;5084505;28;20431;-79
2023/10/31 16:56:37;;;;;;;4.38;1.15;;;;;;;;;;5089811;28;20024;-78
2023/10/31 16:59:03;;;;;;;4.32;1.90;;;;;;;;;;5088198;28;20021;-78
2023/10/31 17:01:30;;;;;;;7.00;2.50;;;;;;;;;;5089083;28;20036;-78
2023/10/31 17:03:56;;;;;;;6.03;3.13;;;;;;;;;;5087457;28;20012;-78
2023/10/31 17:06:22;;;;;;;4.07;2.22;;;;;;;;;;5088327;28;20024;-78
2023/10/31 17:08:48;;;;;;;3.78;2.55;;;;;;;;;;5087070;28;20020;-78
2023/10/31 17:11:14;;;;;;;6.22;5.63;;;;;;;;;;5100370;28;20016;-78
2023/10/31 17:13:40;;;;;;;5.70;5.20;;;;;;;;;;5109417;28;20041;-78
2023/10/31 17:16:07;;;;;;;5.38;3.60;;;;;;;;;;5095908;28;20058;-78
2023/10/31 17:18:33;;;;;;;4.05;2.05;;;;;;;;;;5086427;28;20395;-78
2023/10/31 17:20:59;;;;;;;5.57;2.47;;;;;;;;;;5087619;28;20456;-78
2023/10/31 17:23:25;;;;;;;3.88;2.30;;;;;;;;;;5086390;28;20028;-78
2023/10/31 17:25:54;;;;;;;5.93;2.45;;;;;;;;;;5087461;28;20047;-78
2023/10/31 17:28:20;;;;;;;9.60;2.40;;;;;;;;;;5084227;28;20020;-79
2023/10/31 17:30:46;;;;;;;5.38;2.25;;;;;;;;;;5088665;28;20021;-80
2023/10/31 17:33:13;;;;;;;4.07;2.80;;;;;;;;;;5087236;28;20019;-79
2023/10/31 17:35:39;;;;;;;6.53;2.83;;;;;;;;;;5093424;28;20428;-79
2023/10/31 17:38:05;;;;;;;4.72;2.65;;;;;;;;;;5107202;28;20440;-80
2023/10/31 17:40:31;;;;;;;4.68;2.90;;;;;;;;;;5102456;28;20024;-80
2023/10/31 17:42:57;;;;;;;4.85;3.63;;;;;;;;;;5086508;28;20020;-80
2023/10/31 17:45:26;;;;;;;3.60;2.75;;;;;;;;;;5088362;28;20016;-80
2023/10/31 17:47:52;;;;;;;4.93;3.10;;;;;;;;;;5086310;28;20090;-80
2023/10/31 17:50:18;;;;;;;4.95;2.80;;;;;;;;;;5087420;28;20043;-80
2023/10/31 17:52:44;;;;;;;11.82;3.60;;;;;;;;;;5086403;28;20485;-80
2023/10/31 17:55:10;;;;;;;7.45;4.72;;;;;;;;;;5086969;28;20023;-81
2023/10/31 17:57:37;;;;;;;10.90;5.18;;;;;;;;;;5086137;28;20028;-80
2023/10/31 18:00:04;;;;;;;8.05;4.90;;;;;;;;;;5087862;28;20021;-80
2023/10/31 18:02:29;;;;;;;10.55;4.05;;;;;;;;;;5108103;28;20011;-80
2023/10/31 18:04:56;;;;;;;6.97;4.10;;;;;;;;;;5108562;28;20397;-80
2023/10/31 18:07:22;;;;;;;7.95;4.38;;;;;;;;;;5088807;28;20023;-80
2023/10/31 18:09:49;;;;;;;5.65;3.70;;;;;;;;;;5088145;28;20028;-80
2023/10/31 18:12:17;;;;;;;7.63;3.15;;;;;;;;;;5103483;28;20019;-81
2023/10/31 18:14:42;;;;;;;8.02;3.03;;;;;;;;;;5106874;28;20417;-81
2023/10/31 18:17:08;;;;;;;6.13;3.13;;;;;;;;;;5091254;28;20494;-80
2023/10/31 18:19:34;;;;;;;7.63;2.95;;;;;;;;;;5086574;28;20027;-81
2023/10/31 18:22:02;;;;;;;6.85;2.90;;;;;;;;;;5100269;28;20011;-81
2023/10/31 18:24:29;;;;;;;8.05;3.28;;;;;;;;;;5106712;28;20019;-80
2023/10/31 18:26:55;;;;;;;5.53;2.90;;;;;;;;;;5095442;28;20347;-80
2023/10/31 18:29:21;;;;;;;8.57;3.30;;;;;;;;;;5087835;28;20028;-81
2023/10/31 18:31:48;;;;;;;6.15;2.80;;;;;;;;;;5087978;28;20093;-80
2023/10/31 18:34:14;;;;;;;10.07;3.22;;;;;;;;;;5086776;28;20042;-80
2023/10/31 18:36:40;;;;;;;5.88;3.10;;;;;;;;;;5087019;28;20032;-80
2023/10/31 18:39:07;;;;;;;6.18;3.40;;;;;;;;;;5086356;28;20451;-81
2023/10/31 18:41:33;;;;;;;9.60;3.45;;;;;;;;;;5088819;28;20078;-81
2023/10/31 18:43:59;;;;;;;5.40;2.92;;;;;;;;;;5085699;28;20048;-80
2023/10/31 18:46:25;;;;;;;8.63;3.15;;;;;;;;;;5089058;28;20061;-81
2023/10/31 18:48:51;;;;;;;4.85;3.10;;;;;;;;;;5088696;28;20054;-80
2023/10/31 18:51:18;;;;;;;5.95;3.25;;;;;;;;;;5091171;28;20439;-80
2023/10/31 18:53:45;;;;;;;8.90;3.00;;;;;;;;;;5090291;28;20103;-80
2023/10/31 18:56:11;;;;;;;7.65;3.00;;;;;;;;;;5091134;28;20106;-81
2023/10/31 18:58:39;;;;;;;5.95;2.63;;;;;;;;;;5090228;28;20115;-81
2023/10/31 19:01:05;;;;;;;4.88;2.83;;;;;;;;;;5089479;28;20105;-81
2023/10/31 19:03:31;;;;;;;5.30;2.38;;;;;;;;;;5089759;28;20061;-80
2023/10/31 19:05:57;;;;;;;5.93;2.35;;;;;;;;;;5090323;28;20017;-80
2023/10/31 19:08:26;;;;;;;4.25;2.20;;;;;;;;;;5094068;28;20420;-81
2023/10/31 19:10:53;;;;;;;7.38;2.17;;;;;;;;;;5090620;28;20020;-81
2023/10/31 19:13:19;;;;;;;3.70;2.00;;;;;;;;;;5093975;28;19997;-81
2023/10/31 19:15:45;;;;;;;6.85;2.35;;;;;;;;;;5091436;28;20046;-81
2023/10/31 19:18:11;;;;;;;5.15;2.83;;;;;;;;;;5092320;28;20482;-81
2023/10/31 19:20:37;;;;;;;4.45;2.38;;;;;;;;;;5090055;28;20463;-81
2023/10/31 19:23:05;;;;;;;4.90;2.15;;;;;;;;;;5092994;28;20010;-80
2023/10/31 19:25:31;;;;;;;4.40;2.33;;;;;;;;;;5090025;28;20422;-81
2023/10/31 19:27:57;;;;;;;5.93;2.53;;;;;;;;;;5092462;28;20289;-80
2023/10/31 19:30:23;;;;;;;5.85;2.05;;;;;;;;;;5091657;28;20012;-81
2023/10/31 19:32:50;;;;;;;5.85;2.20;;;;;;;;;;5090495;28;20085;-81
2023/10/31 19:35:16;;;;;;;7.50;2.40;;;;;;;;;;5089853;28;20032;-81
2023/10/31 19:37:47;;;;;;;6.80;2.60;;;;;;;;;;5089818;28;20035;-80
2023/10/31 19:40:14;;;;;;;6.20;2.75;;;;;;;;;;5091135;28;20451;-81
2023/10/31 19:42:40;;;;;;;12.95;8.40;;;;;;;;;;5093532;28;20392;-81
2023/10/31 19:45:07;;;;;;;11.02;6.38;;;;;;;;;;5090159;28;20015;-81
2023/10/31 19:47:36;;;;;;;10.25;5.18;;;;;;;;;;5092172;28;20043;-81
2023/10/31 19:50:02;;;;;;;7.82;3.33;;;;;;;;;;5086752;28;20031;-81
2023/10/31 19:52:28;;;;;;;11.18;4.55;;;;;;;;;;5091505;28;20460;-80
2023/10/31 19:54:54;;;;;;;9.32;3.38;;;;;;;;;;5089635;28;20027;-79
2023/10/31 19:57:21;;;;;;;9.82;4.00;;;;;;;;;;5091086;28;20051;-79
2023/10/31 19:59:48;;;;;;;10.68;4.30;;;;;;;;;;5089063;28;20024;-80
2023/10/31 20:02:14;;;;;;;8.45;3.80;;;;;;;;;;5092198;28;20024;-80
2023/10/31 20:04:40;;;;;;;9.35;4.30;;;;;;;;;;5090691;28;20375;-80
2023/10/31 20:07:06;;;;;;;5.78;3.65;;;;;;;;;;5089754;28;20019;-80
2023/10/31 20:09:32;;;;;;;8.85;4.32;;;;;;;;;;5090665;28;20523;-80
2023/10/31 20:11:58;;;;;;;8.35;3.65;;;;;;;;;;5089579;28;20019;-80
2023/10/31 20:14:24;;;;;;;8.05;4.07;;;;;;;;;;5090136;28;20024;-80
2023/10/31 20:16:50;;;;;;;8.40;4.00;;;;;;;;;;5090517;28;20028;-80
2023/10/31 20:19:16;;;;;;;8.43;4.30;;;;;;;;;;5090731;28;20043;-80
2023/10/31 20:21:42;;;;;;;8.75;4.32;;;;;;;;;;5088796;28;20012;-80
2023/10/31 20:24:08;;;;;;;9.40;5.68;;;;;;;;;;5091193;28;20607;-80
2023/10/31 20:26:34;;;;;;;10.52;6.18;;;;;;;;;;5089057;28;20078;-79
2023/10/31 20:29:02;;;;;;;11.10;4.80;;;;;;;;;;5105213;28;20374;-77
2023/10/31 20:31:28;;;;;;;9.95;5.00;;;;;;;;;;5109319;28;20047;-79
2023/10/31 20:33:54;;;;;;;11.63;5.07;;;;;;;;;;5094140;28;20514;-79
2023/10/31 20:36:20;;;;;;;10.25;5.05;;;;;;;;;;5088889;28;20059;-79
2023/10/31 20:38:46;;;;;;;12.07;5.78;;;;;;;;;;5101887;28;20023;-78
2023/10/31 20:41:12;;;;;;;11.05;6.00;;;;;;;;;;5108976;28;20089;-78
2023/10/31 20:43:38;;;;;;;13.00;5.97;;;;;;;;;;5098393;28;20008;-81
2023/10/31 20:46:04;;;;;;;23.60;6.63;;;;;;;;;;5088670;28;20016;-80
2023/10/31 20:48:31;;;;;;;9.95;5.50;;;;;;;;;;5100173;28;20074;-77
2023/10/31 20:50:57;;;;;;;12.20;5.78;;;;;;;;;;5108693;28;20391;-77
2023/10/31 20:53:23;;;;;;;13.38;6.25;;;;;;;;;;5102009;28;20456;-77
2023/10/31 20:55:49;;;;;;;13.68;6.68;;;;;;;;;;5089779;28;20012;-77
2023/10/31 20:58:15;;;;;;;14.32;6.85;;;;;;;;;;5095273;28;20039;-77
2023/10/31 21:00:41;;;;;;;18.30;8.50;;;;;;;;;;5108635;28;20281;-77
2023/10/31 21:03:09;;;;;;;16.70;6.88;;;;;;;;;;5104526;28;20008;-77
2023/10/31 21:05:35;;;;;;;17.40;7.68;;;;;;;;;;5088324;28;20026;-77
2023/10/31 21:08:02;;;;;;;15.63;6.43;;;;;;;;;;5075233;28;20019;-77
2023/10/31 21:10:28;;;;;;;15.82;7.45;;;;;;;;;;5107426;28;20020;-77
2023/10/31 21:12:55;;;;;;;16.00;7.35;;;;;;;;;;5107713;28;20016;-77
2023/10/31 21:15:21;;;;;;;15.20;7.38;;;;;;;;;;5088168;28;20536;-77
2023/10/31 21:17:47;;;;;;;16.38;7.22;;;;;;;;;;5089824;28;20548;-77
2023/10/31 21:20:13;;;;;;;14.48;7.75;;;;;;;;;;5108160;28;20019;-77
2023/10/31 21:22:39;;;;;;;14.00;7.00;;;;;;;;;;5108496;28;20015;-77
2023/10/31 21:25:05;;;;;;;18.33;8.07;;;;;;;;;;5088146;28;20013;-77
2023/10/31 21:27:31;;;;;;;16.77;7.30;;;;;;;;;;5089171;28;20123;-77
2023/10/31 21:29:58;;;;;;;19.65;8.60;;;;;;;;;;5107326;28;20156;-77
2023/10/31 21:32:24;;;;;;;16.92;7.57;;;;;;;;;;5109263;28;20031;-77
2023/10/31 21:34:50;;;;;;;17.33;7.45;;;;;;;;;;5091088;28;20347;-77
2023/10/31 21:37:16;;;;;;;15.68;7.25;;;;;;;;;;5088702;28;20055;-77
2023/10/31 21:39:42;;;;;;;20.63;7.82;;;;;;;;;;5104724;28;20019;-77
2023/10/31 21:42:08;;;;;;;22.60;7.53;;;;;;;;;;5109144;28;20012;-77
2023/10/31 21:44:34;;;;;;;17.67;7.28;;;;;;;;;;5091918;28;20019;-77
2023/10/31 21:47:00;;;;;;;21.35;7.45;;;;;;;;;;5087333;28;20028;-77
2023/10/31 21:49:26;;;;;;;18.52;8.07;;;;;;;;;;5096715;28;20039;-76
2023/10/31 21:51:53;;;;;;;20.45;8.45;;;;;;;;;;5107452;28;20104;-77
2023/10/31 21:54:22;;;;;;;18.05;7.35;;;;;;;;;;5096460;28;20285;-76
2023/10/31 21:56:48;;;;;;;20.27;7.90;;;;;;;;;;5087221;28;20028;-77
2023/10/31 21:59:14;;;;;;;20.65;8.60;;;;;;;;;;5098515;28;20039;-76
2023/10/31 22:01:40;;;;;;;20.20;7.63;;;;;;;;;;5108859;28;20012;-77
2023/10/31 22:04:06;;;;;;;16.25;7.25;;;;;;;;;;5101053;28;20066;-76
2023/10/31 22:06:33;;;;;;;19.48;7.32;;;;;;;;;;5086907;28;20386;-77
2023/10/31 22:08:59;;;;;;;17.80;6.72;;;;;;;;;;5094657;28;20073;-77
2023/10/31 22:11:25;;;;;;;15.77;6.90;;;;;;;;;;5107395;28;20016;-76
2023/10/31 22:13:51;;;;;;;15.55;6.18;;;;;;;;;;5104305;28;20020;-77
2023/10/31 22:16:17;;;;;;;15.20;6.40;;;;;;;;;;5088297;28;20134;-77
2023/10/31 22:18:43;;;;;;;15.43;6.03;;;;;;;;;;5087167;28;20012;-77
2023/10/31 22:21:10;;;;;;;13.75;5.80;;;;;;;;;;5087213;28;20024;-77
2023/10/31 22:23:39;;;;;;;13.88;6.22;;;;;;;;;;5090544;28;20031;-77
2023/10/31 22:26:05;;;;;;;13.82;6.18;;;;;;;;;;5091209;28;20253;-77
2023/10/31 22:28:31;;;;;;;12.82;6.63;;;;;;;;;;5089494;28;20016;-77
2023/10/31 22:30:57;;;;;;;12.00;6.00;;;;;;;;;;5107231;28;20050;-76
2023/10/31 22:33:24;;;;;;;16.90;6.30;;;;;;;;;;5108442;28;20016;-77
2023/10/31 22:35:49;;;;;;;14.05;6.30;;;;;;;;;;5086967;28;20024;-77
2023/10/31 22:38:15;;;;;;;16.60;6.10;;;;;;;;;;5086762;28;20023;-77
2023/10/31 22:40:41;;;;;;;19.50;7.47;;;;;;;;;;5105096;28;20016;-77
2023/10/31 22:43:07;;;;;;;17.80;7.80;;;;;;;;;;5106957;28;20076;-77
2023/10/31 22:45:34;;;;;;;19.05;7.10;;;;;;;;;;5090454;28;20016;-78
2023/10/31 22:48:00;;;;;;;25.23;8.90;;;;;;;;;;5088066;28;20058;-77
2023/10/31 22:50:26;;;;;;;24.90;7.90;;;;;;;;;;5103024;28;20379;-77
2023/10/31 22:52:52;;;;;;;24.00;8.63;;;;;;;;;;5108391;28;20058;-77
2023/10/31 22:55:18;;;;;;;26.17;9.77;;;;;;;;;;5093868;28;20032;-76
2023/10/31 22:57:47;;;;;;;28.20;9.13;;;;;;;;;;5086388;28;20040;-76
2023/10/31 23:00:21;;;;;;;26.80;9.93;;;;;;;;;;5098368;28;20425;-77
2023/10/31 23:02:47;;;;;;;30.58;10.25;;;;;;;;;;5106849;28;20016;-77
2023/10/31 23:05:13;;;;;;;30.58;9.23;;;;;;;;;;5095091;28;20107;-76
2023/10/31 23:07:39;;;;;;;29.85;9.50;;;;;;;;;;5086590;28;20016;-77
2023/10/31 23:10:06;;;;;;;30.17;9.52;;;;;;;;;;5098115;28;20072;-76
2023/10/31 23:12:32;;;;;;;33.03;10.18;;;;;;;;;;5108176;28;20019;-77
2023/10/31 23:14:58;;;;;;;31.88;10.40;;;;;;;;;;5105918;28;20026;-77
2023/10/31 23:17:24;;;;;;;33.92;10.68;;;;;;;;;;5106492;28;20387;-77
2023/10/31 23:19:56;;;;;;;28.73;10.32;;;;;;;;;;5099253;28;20177;-77
2023/10/31 23:22:22;;;;;;;39.85;11.30;;;;;;;;;;5088154;28;20032;-77
2023/10/31 23:24:48;;;;;;;43.63;12.70;;;;;;;;;;5094430;28;20087;-77
2023/10/31 23:27:15;;;;;;;36.53;11.63;;;;;;;;;;5107874;28;20177;-77
2023/10/31 23:29:41;;;;;;;43.92;12.40;;;;;;;;;;5102389;28;20017;-77
2023/10/31 23:32:07;;;;;;;45.45;12.98;;;;;;;;;;5086094;28;20315;-77
2023/10/31 23:34:33;;;;;;;38.58;11.75;;;;;;;;;;5092261;28;20023;-76
2023/10/31 23:37:00;;;;;;;47.92;12.57;;;;;;;;;;5110408;28;20375;-77
2023/10/31 23:39:26;;;;;;;45.55;12.52;;;;;;;;;;5109615;28;20008;-77
2023/10/31 23:41:52;;;;;;;51.00;13.45;;;;;;;;;;5091425;28;20012;-77
2023/10/31 23:44:18;;;;;;;48.35;13.05;;;;;;;;;;5090328;28;20087;-77
2023/10/31 23:46:44;;;;;;;50.53;13.50;;;;;;;;;;5111507;28;20023;-76
2023/10/31 23:49:10;;;;;;;51.20;14.10;;;;;;;;;;5110258;28;20015;-77
2023/10/31 23:51:36;;;;;;;49.40;13.88;;;;;;;;;;5092034;28;20375;-77
2023/10/31 23:54:02;;;;;;;59.13;14.73;;;;;;;;;;5089917;28;20554;-76
2023/10/31 23:56:28;;;;;;;63.80;15.25;;;;;;;;;;5107157;28;20529;-77
2023/10/31 23:58:54;;;;;;;50.42;13.30;;;;;;;;;;5109794;28;20008;-77
